sensor_id;sensor_type;location;lat;lon;timestamp;P1;durP1;ratioP1;P2;durP2;ratioP2
67041;SDS011;53949;47.790;18.750;2023-04-03T00:00:33;3.85;;;2.87;;
67041;SDS011;53949;47.790;18.750;2023-04-03T00:03:37;3.10;;;2.67;;
67041;SDS011;53949;47.790;18.750;2023-04-03T00:06:40;4.70;;;3.30;;
67041;SDS011;53949;47.790;18.750;2023-04-03T00:09:43;3.72;;;2.62;;
67041;SDS011;53949;47.790;18.750;2023-04-03T00:12:46;4.07;;;3.08;;
67041;SDS011;53949;47.790;18.750;2023-04-03T00:15:50;5.43;;;2.72;;
67041;SDS011;53949;47.790;18.750;2023-04-03T00:18:54;3.85;;;2.70;;
67041;SDS011;53949;47.790;18.750;2023-04-03T00:21:57;3.45;;;2.87;;
67041;SDS011;53949;47.790;18.750;2023-04-03T00:25:00;5.80;;;2.85;;
67041;SDS011;53949;47.790;18.750;2023-04-03T00:28:04;6.50;;;2.90;;
67041;SDS011;53949;47.790;18.750;2023-04-03T00:31:07;5.45;;;2.95;;
67041;SDS011;53949;47.790;18.750;2023-04-03T00:34:11;3.40;;;3.00;;
67041;SDS011;53949;47.790;18.750;2023-04-03T00:37:14;4.00;;;2.55;;
67041;SDS011;53949;47.790;18.750;2023-04-03T00:40:17;4.12;;;2.60;;
67041;SDS011;53949;47.790;18.750;2023-04-03T00:43:21;4.28;;;2.70;;
67041;SDS011;53949;47.790;18.750;2023-04-03T00:46:26;5.37;;;2.97;;
67041;SDS011;53949;47.790;18.750;2023-04-03T00:49:29;3.35;;;2.45;;
67041;SDS011;53949;47.790;18.750;2023-04-03T00:52:33;3.47;;;2.42;;
67041;SDS011;53949;47.790;18.750;2023-04-03T00:55:35;3.05;;;2.60;;
67041;SDS011;53949;47.790;18.750;2023-04-03T00:58:46;3.85;;;2.55;;
67041;SDS011;53949;47.790;18.750;2023-04-03T01:01:53;2.78;;;2.42;;
67041;SDS011;53949;47.790;18.750;2023-04-03T01:05:00;2.05;;;1.77;;
67041;SDS011;53949;47.790;18.750;2023-04-03T01:08:03;2.28;;;2.08;;
67041;SDS011;53949;47.790;18.750;2023-04-03T01:11:08;2.85;;;2.30;;
67041;SDS011;53949;47.790;18.750;2023-04-03T01:14:11;3.37;;;2.30;;
67041;SDS011;53949;47.790;18.750;2023-04-03T01:26:58;3.35;;;2.20;;
67041;SDS011;53949;47.790;18.750;2023-04-03T01:33:07;5.05;;;2.70;;
67041;SDS011;53949;47.790;18.750;2023-04-03T01:36:14;4.12;;;2.45;;
67041;SDS011;53949;47.790;18.750;2023-04-03T01:39:23;2.60;;;2.25;;
67041;SDS011;53949;47.790;18.750;2023-04-03T01:42:26;1.90;;;1.80;;
67041;SDS011;53949;47.790;18.750;2023-04-03T01:45:29;3.05;;;2.50;;
67041;SDS011;53949;47.790;18.750;2023-04-03T01:48:33;2.28;;;2.08;;
67041;SDS011;53949;47.790;18.750;2023-04-03T01:51:37;2.15;;;1.90;;
67041;SDS011;53949;47.790;18.750;2023-04-03T01:54:40;2.72;;;2.05;;
67041;SDS011;53949;47.790;18.750;2023-04-03T01:57:43;3.97;;;2.67;;
67041;SDS011;53949;47.790;18.750;2023-04-03T02:00:47;6.68;;;2.80;;
67041;SDS011;53949;47.790;18.750;2023-04-03T02:03:51;2.87;;;2.15;;
67041;SDS011;53949;47.790;18.750;2023-04-03T02:06:54;2.97;;;2.42;;
67041;SDS011;53949;47.790;18.750;2023-04-03T02:09:57;3.78;;;2.58;;
67041;SDS011;53949;47.790;18.750;2023-04-03T02:13:00;1.98;;;1.80;;
67041;SDS011;53949;47.790;18.750;2023-04-03T02:16:10;4.32;;;2.75;;
67041;SDS011;53949;47.790;18.750;2023-04-03T02:19:14;2.75;;;2.37;;
67041;SDS011;53949;47.790;18.750;2023-04-03T02:22:17;2.75;;;2.47;;
67041;SDS011;53949;47.790;18.750;2023-04-03T02:25:21;3.00;;;2.65;;
67041;SDS011;53949;47.790;18.750;2023-04-03T02:28:25;2.30;;;2.10;;
67041;SDS011;53949;47.790;18.750;2023-04-03T02:31:28;3.47;;;2.17;;
67041;SDS011;53949;47.790;18.750;2023-04-03T02:34:34;3.20;;;2.72;;
67041;SDS011;53949;47.790;18.750;2023-04-03T02:37:39;3.80;;;2.53;;
67041;SDS011;53949;47.790;18.750;2023-04-03T02:40:43;2.65;;;1.65;;
67041;SDS011;53949;47.790;18.750;2023-04-03T02:43:47;3.83;;;2.50;;
67041;SDS011;53949;47.790;18.750;2023-04-03T02:46:50;3.50;;;2.40;;
67041;SDS011;53949;47.790;18.750;2023-04-03T02:49:54;3.87;;;2.58;;
67041;SDS011;53949;47.790;18.750;2023-04-03T02:52:57;4.45;;;2.65;;
67041;SDS011;53949;47.790;18.750;2023-04-03T02:56:00;4.12;;;2.87;;
67041;SDS011;53949;47.790;18.750;2023-04-03T02:59:03;5.95;;;2.90;;
67041;SDS011;53949;47.790;18.750;2023-04-03T03:02:08;4.37;;;2.95;;
67041;SDS011;53949;47.790;18.750;2023-04-03T03:05:11;3.85;;;2.70;;
67041;SDS011;53949;47.790;18.750;2023-04-03T03:08:14;4.25;;;3.10;;
67041;SDS011;53949;47.790;18.750;2023-04-03T03:11:18;2.75;;;2.28;;
67041;SDS011;53949;47.790;18.750;2023-04-03T03:14:22;3.47;;;3.05;;
67041;SDS011;53949;47.790;18.750;2023-04-03T03:17:25;3.50;;;2.90;;
67041;SDS011;53949;47.790;18.750;2023-04-03T03:20:29;2.40;;;2.17;;
67041;SDS011;53949;47.790;18.750;2023-04-03T03:23:32;3.12;;;2.55;;
67041;SDS011;53949;47.790;18.750;2023-04-03T03:26:36;3.67;;;2.85;;
67041;SDS011;53949;47.790;18.750;2023-04-03T03:29:39;4.30;;;2.87;;
67041;SDS011;53949;47.790;18.750;2023-04-03T03:32:42;4.53;;;3.08;;
67041;SDS011;53949;47.790;18.750;2023-04-03T03:35:46;5.20;;;3.47;;
67041;SDS011;53949;47.790;18.750;2023-04-03T03:38:49;3.85;;;2.95;;
67041;SDS011;53949;47.790;18.750;2023-04-03T03:41:52;3.95;;;2.87;;
67041;SDS011;53949;47.790;18.750;2023-04-03T03:44:56;6.32;;;3.00;;
67041;SDS011;53949;47.790;18.750;2023-04-03T03:47:59;3.90;;;3.10;;
67041;SDS011;53949;47.790;18.750;2023-04-03T03:51:03;2.78;;;2.47;;
67041;SDS011;53949;47.790;18.750;2023-04-03T03:54:07;3.12;;;2.72;;
67041;SDS011;53949;47.790;18.750;2023-04-03T03:57:11;5.05;;;3.00;;
67041;SDS011;53949;47.790;18.750;2023-04-03T04:00:15;3.67;;;2.92;;
67041;SDS011;53949;47.790;18.750;2023-04-03T04:03:20;3.30;;;2.42;;
67041;SDS011;53949;47.790;18.750;2023-04-03T04:06:23;8.65;;;3.33;;
67041;SDS011;53949;47.790;18.750;2023-04-03T04:09:28;4.03;;;2.70;;
67041;SDS011;53949;47.790;18.750;2023-04-03T04:12:32;5.25;;;3.10;;
67041;SDS011;53949;47.790;18.750;2023-04-03T04:15:35;3.90;;;2.42;;
67041;SDS011;53949;47.790;18.750;2023-04-03T04:18:40;4.22;;;2.78;;
67041;SDS011;53949;47.790;18.750;2023-04-03T04:21:44;2.85;;;2.45;;
67041;SDS011;53949;47.790;18.750;2023-04-03T04:24:47;2.03;;;1.83;;
67041;SDS011;53949;47.790;18.750;2023-04-03T04:27:51;4.55;;;2.92;;
67041;SDS011;53949;47.790;18.750;2023-04-03T04:30:54;3.40;;;2.80;;
67041;SDS011;53949;47.790;18.750;2023-04-03T04:34:00;2.08;;;1.90;;
67041;SDS011;53949;47.790;18.750;2023-04-03T04:37:03;2.97;;;2.37;;
67041;SDS011;53949;47.790;18.750;2023-04-03T04:40:07;2.55;;;1.77;;
67041;SDS011;53949;47.790;18.750;2023-04-03T04:43:10;3.22;;;2.33;;
67041;SDS011;53949;47.790;18.750;2023-04-03T04:46:18;4.75;;;2.87;;
67041;SDS011;53949;47.790;18.750;2023-04-03T04:49:21;4.20;;;2.65;;
67041;SDS011;53949;47.790;18.750;2023-04-03T04:52:25;3.30;;;2.80;;
67041;SDS011;53949;47.790;18.750;2023-04-03T04:55:28;5.30;;;2.42;;
67041;SDS011;53949;47.790;18.750;2023-04-03T04:58:32;4.70;;;2.55;;
67041;SDS011;53949;47.790;18.750;2023-04-03T05:01:36;3.28;;;2.65;;
67041;SDS011;53949;47.790;18.750;2023-04-03T05:04:41;5.30;;;2.65;;
67041;SDS011;53949;47.790;18.750;2023-04-03T05:10:51;6.03;;;2.87;;
67041;SDS011;53949;47.790;18.750;2023-04-03T05:13:58;6.05;;;3.10;;
67041;SDS011;53949;47.790;18.750;2023-04-03T05:17:03;3.33;;;2.55;;
67041;SDS011;53949;47.790;18.750;2023-04-03T05:20:07;3.22;;;2.67;;
67041;SDS011;53949;47.790;18.750;2023-04-03T05:23:12;3.00;;;2.80;;
67041;SDS011;53949;47.790;18.750;2023-04-03T05:26:16;4.32;;;2.55;;
67041;SDS011;53949;47.790;18.750;2023-04-03T05:29:22;4.00;;;2.90;;
67041;SDS011;53949;47.790;18.750;2023-04-03T05:32:26;3.70;;;2.75;;
67041;SDS011;53949;47.790;18.750;2023-04-03T05:38:37;4.43;;;3.20;;
67041;SDS011;53949;47.790;18.750;2023-04-03T05:41:42;3.50;;;2.67;;
67041;SDS011;53949;47.790;18.750;2023-04-03T05:44:47;3.08;;;2.62;;
67041;SDS011;53949;47.790;18.750;2023-04-03T05:47:52;11.30;;;2.70;;
67041;SDS011;53949;47.790;18.750;2023-04-03T05:50:56;3.75;;;2.97;;
67041;SDS011;53949;47.790;18.750;2023-04-03T05:54:02;4.43;;;2.75;;
67041;SDS011;53949;47.790;18.750;2023-04-03T05:57:11;4.18;;;2.72;;
67041;SDS011;53949;47.790;18.750;2023-04-03T06:00:16;3.23;;;2.80;;
67041;SDS011;53949;47.790;18.750;2023-04-03T06:03:22;3.35;;;2.72;;
67041;SDS011;53949;47.790;18.750;2023-04-03T06:06:41;3.28;;;2.62;;
67041;SDS011;53949;47.790;18.750;2023-04-03T06:10:05;2.67;;;2.47;;
67041;SDS011;53949;47.790;18.750;2023-04-03T06:13:11;2.95;;;2.42;;
67041;SDS011;53949;47.790;18.750;2023-04-03T06:16:16;3.08;;;2.67;;
67041;SDS011;53949;47.790;18.750;2023-04-03T06:19:20;4.95;;;2.47;;
67041;SDS011;53949;47.790;18.750;2023-04-03T06:22:25;2.67;;;2.47;;
67041;SDS011;53949;47.790;18.750;2023-04-03T06:25:29;2.62;;;1.85;;
67041;SDS011;53949;47.790;18.750;2023-04-03T06:28:32;3.85;;;2.72;;
67041;SDS011;53949;47.790;18.750;2023-04-03T06:31:35;3.67;;;2.70;;
67041;SDS011;53949;47.790;18.750;2023-04-03T06:34:42;2.42;;;2.17;;
67041;SDS011;53949;47.790;18.750;2023-04-03T06:37:45;4.68;;;2.22;;
67041;SDS011;53949;47.790;18.750;2023-04-03T06:40:48;3.33;;;2.45;;
67041;SDS011;53949;47.790;18.750;2023-04-03T06:43:51;4.25;;;2.55;;
67041;SDS011;53949;47.790;18.750;2023-04-03T06:46:55;4.47;;;2.50;;
67041;SDS011;53949;47.790;18.750;2023-04-03T06:49:58;2.67;;;2.20;;
67041;SDS011;53949;47.790;18.750;2023-04-03T06:53:01;3.25;;;2.25;;
67041;SDS011;53949;47.790;18.750;2023-04-03T06:56:05;2.40;;;2.08;;
67041;SDS011;53949;47.790;18.750;2023-04-03T06:59:09;1.90;;;1.70;;
67041;SDS011;53949;47.790;18.750;2023-04-03T07:02:12;1.70;;;1.60;;
67041;SDS011;53949;47.790;18.750;2023-04-03T07:05:16;0.77;;;0.77;;
67041;SDS011;53949;47.790;18.750;2023-04-03T07:08:19;1.60;;;1.30;;
67041;SDS011;53949;47.790;18.750;2023-04-03T07:11:22;1.12;;;1.05;;
67041;SDS011;53949;47.790;18.750;2023-04-03T07:14:25;1.37;;;1.15;;
67041;SDS011;53949;47.790;18.750;2023-04-03T07:17:29;0.95;;;0.93;;
67041;SDS011;53949;47.790;18.750;2023-04-03T07:20:32;1.35;;;1.30;;
67041;SDS011;53949;47.790;18.750;2023-04-03T07:23:35;1.42;;;1.33;;
67041;SDS011;53949;47.790;18.750;2023-04-03T07:26:38;1.20;;;1.10;;
67041;SDS011;53949;47.790;18.750;2023-04-03T07:29:42;1.83;;;1.10;;
67041;SDS011;53949;47.790;18.750;2023-04-03T07:32:45;0.75;;;0.75;;
67041;SDS011;53949;47.790;18.750;2023-04-03T07:35:49;1.42;;;1.30;;
67041;SDS011;53949;47.790;18.750;2023-04-03T07:38:52;1.73;;;0.98;;
67041;SDS011;53949;47.790;18.750;2023-04-03T07:41:55;1.42;;;1.20;;
67041;SDS011;53949;47.790;18.750;2023-04-03T07:44:58;3.08;;;2.67;;
67041;SDS011;53949;47.790;18.750;2023-04-03T07:48:03;1.35;;;1.17;;
67041;SDS011;53949;47.790;18.750;2023-04-03T07:51:07;1.20;;;1.10;;
67041;SDS011;53949;47.790;18.750;2023-04-03T07:54:10;3.53;;;1.10;;
67041;SDS011;53949;47.790;18.750;2023-04-03T07:57:13;1.62;;;1.10;;
67041;SDS011;53949;47.790;18.750;2023-04-03T08:00:17;3.35;;;1.27;;
67041;SDS011;53949;47.790;18.750;2023-04-03T08:03:22;1.20;;;1.10;;
67041;SDS011;53949;47.790;18.750;2023-04-03T08:06:25;1.67;;;0.95;;
67041;SDS011;53949;47.790;18.750;2023-04-03T08:09:47;1.92;;;1.02;;
67041;SDS011;53949;47.790;18.750;2023-04-03T08:12:51;1.67;;;0.80;;
67041;SDS011;53949;47.790;18.750;2023-04-03T08:15:54;2.25;;;0.80;;
67041;SDS011;53949;47.790;18.750;2023-04-03T08:19:01;1.12;;;1.12;;
67041;SDS011;53949;47.790;18.750;2023-04-03T08:22:20;1.00;;;0.80;;
67041;SDS011;53949;47.790;18.750;2023-04-03T08:25:27;1.08;;;0.73;;
67041;SDS011;53949;47.790;18.750;2023-04-03T08:28:33;1.55;;;0.80;;
67041;SDS011;53949;47.790;18.750;2023-04-03T08:31:36;0.90;;;0.90;;
67041;SDS011;53949;47.790;18.750;2023-04-03T08:34:39;0.50;;;0.50;;
67041;SDS011;53949;47.790;18.750;2023-04-03T08:37:42;0.93;;;0.80;;
67041;SDS011;53949;47.790;18.750;2023-04-03T08:40:45;0.77;;;0.77;;
67041;SDS011;53949;47.790;18.750;2023-04-03T08:47:11;0.93;;;0.93;;
67041;SDS011;53949;47.790;18.750;2023-04-03T08:50:19;1.10;;;1.00;;
67041;SDS011;53949;47.790;18.750;2023-04-03T08:53:25;1.30;;;0.90;;
67041;SDS011;53949;47.790;18.750;2023-04-03T08:56:31;1.83;;;0.90;;
67041;SDS011;53949;47.790;18.750;2023-04-03T08:59:36;1.00;;;0.90;;
67041;SDS011;53949;47.790;18.750;2023-04-03T09:02:41;1.00;;;0.90;;
67041;SDS011;53949;47.790;18.750;2023-04-03T09:09:35;1.20;;;0.75;;
67041;SDS011;53949;47.790;18.750;2023-04-03T09:12:41;0.88;;;0.88;;
67041;SDS011;53949;47.790;18.750;2023-04-03T09:15:45;0.85;;;0.80;;
67041;SDS011;53949;47.790;18.750;2023-04-03T09:18:52;0.85;;;0.85;;
67041;SDS011;53949;47.790;18.750;2023-04-03T09:22:11;0.65;;;0.65;;
67041;SDS011;53949;47.790;18.750;2023-04-03T09:25:17;1.02;;;0.95;;
67041;SDS011;53949;47.790;18.750;2023-04-03T09:28:24;0.70;;;0.70;;
67041;SDS011;53949;47.790;18.750;2023-04-03T09:31:32;0.77;;;0.77;;
67041;SDS011;53949;47.790;18.750;2023-04-03T09:34:43;0.88;;;0.80;;
67041;SDS011;53949;47.790;18.750;2023-04-03T09:37:49;0.77;;;0.70;;
67041;SDS011;53949;47.790;18.750;2023-04-03T09:41:07;0.60;;;0.60;;
67041;SDS011;53949;47.790;18.750;2023-04-03T09:44:23;0.90;;;0.62;;
67041;SDS011;53949;47.790;18.750;2023-04-03T09:47:46;1.10;;;1.00;;
67041;SDS011;53949;47.790;18.750;2023-04-03T09:53:53;0.60;;;0.60;;
67041;SDS011;53949;47.790;18.750;2023-04-03T09:56:57;0.70;;;0.70;;
67041;SDS011;53949;47.790;18.750;2023-04-03T10:00:10;0.60;;;0.60;;
67041;SDS011;53949;47.790;18.750;2023-04-03T10:03:43;0.70;;;0.70;;
67041;SDS011;53949;47.790;18.750;2023-04-03T10:06:50;0.60;;;0.60;;
67041;SDS011;53949;47.790;18.750;2023-04-03T10:09:56;0.60;;;0.60;;
67041;SDS011;53949;47.790;18.750;2023-04-03T10:13:07;0.55;;;0.50;;
67041;SDS011;53949;47.790;18.750;2023-04-03T10:16:26;0.60;;;0.60;;
67041;SDS011;53949;47.790;18.750;2023-04-03T10:26:19;4.05;;;0.90;;
67041;SDS011;53949;47.790;18.750;2023-04-03T10:29:39;0.80;;;0.80;;
67041;SDS011;53949;47.790;18.750;2023-04-03T10:32:54;0.90;;;0.80;;
67041;SDS011;53949;47.790;18.750;2023-04-03T10:36:12;0.80;;;0.80;;
67041;SDS011;53949;47.790;18.750;2023-04-03T10:42:55;1.58;;;1.23;;
67041;SDS011;53949;47.790;18.750;2023-04-03T10:46:03;0.68;;;0.68;;
67041;SDS011;53949;47.790;18.750;2023-04-03T10:49:14;0.72;;;0.70;;
67041;SDS011;53949;47.790;18.750;2023-04-03T10:52:24;0.80;;;0.80;;
67041;SDS011;53949;47.790;18.750;2023-04-03T10:55:32;0.93;;;0.93;;
67041;SDS011;53949;47.790;18.750;2023-04-03T10:58:39;1.05;;;0.93;;
67041;SDS011;53949;47.790;18.750;2023-04-03T11:01:45;0.80;;;0.80;;
67041;SDS011;53949;47.790;18.750;2023-04-03T11:04:51;0.82;;;0.80;;
67041;SDS011;53949;47.790;18.750;2023-04-03T11:07:59;0.60;;;0.60;;
67041;SDS011;53949;47.790;18.750;2023-04-03T11:11:06;0.68;;;0.68;;
67041;SDS011;53949;47.790;18.750;2023-04-03T11:14:29;0.60;;;0.60;;
67041;SDS011;53949;47.790;18.750;2023-04-03T11:17:38;0.98;;;0.98;;
67041;SDS011;53949;47.790;18.750;2023-04-03T11:20:53;0.50;;;0.50;;
67041;SDS011;53949;47.790;18.750;2023-04-03T11:24:02;0.82;;;0.82;;
67041;SDS011;53949;47.790;18.750;2023-04-03T11:27:17;1.37;;;0.93;;
67041;SDS011;53949;47.790;18.750;2023-04-03T11:30:28;0.90;;;0.90;;
67041;SDS011;53949;47.790;18.750;2023-04-03T11:37:16;0.90;;;0.90;;
67041;SDS011;53949;47.790;18.750;2023-04-03T11:40:28;3.45;;;1.10;;
67041;SDS011;53949;47.790;18.750;2023-04-03T11:43:33;1.37;;;1.27;;
67041;SDS011;53949;47.790;18.750;2023-04-03T11:50:02;2.10;;;1.42;;
67041;SDS011;53949;47.790;18.750;2023-04-03T11:59:26;1.95;;;1.65;;
67041;SDS011;53949;47.790;18.750;2023-04-03T12:02:40;1.20;;;1.12;;
67041;SDS011;53949;47.790;18.750;2023-04-03T12:05:57;1.67;;;1.17;;
67041;SDS011;53949;47.790;18.750;2023-04-03T12:09:33;1.10;;;1.00;;
67041;SDS011;53949;47.790;18.750;2023-04-03T12:12:39;2.92;;;1.20;;
67041;SDS011;53949;47.790;18.750;2023-04-03T12:15:46;8.68;;;5.00;;
67041;SDS011;53949;47.790;18.750;2023-04-03T12:19:03;0.90;;;0.88;;
67041;SDS011;53949;47.790;18.750;2023-04-03T12:22:08;0.88;;;0.88;;
67041;SDS011;53949;47.790;18.750;2023-04-03T12:28:52;3.40;;;0.98;;
67041;SDS011;53949;47.790;18.750;2023-04-03T12:35:30;1.15;;;1.10;;
67041;SDS011;53949;47.790;18.750;2023-04-03T12:41:58;1.50;;;1.40;;
67041;SDS011;53949;47.790;18.750;2023-04-03T12:45:25;1.35;;;1.25;;
67041;SDS011;53949;47.790;18.750;2023-04-03T12:48:30;0.60;;;0.60;;
67041;SDS011;53949;47.790;18.750;2023-04-03T12:54:45;1.20;;;1.10;;
67041;SDS011;53949;47.790;18.750;2023-04-03T12:58:19;1.73;;;1.45;;
67041;SDS011;53949;47.790;18.750;2023-04-03T13:01:29;0.98;;;0.98;;
67041;SDS011;53949;47.790;18.750;2023-04-03T13:04:32;2.30;;;1.50;;
67041;SDS011;53949;47.790;18.750;2023-04-03T13:07:36;1.83;;;1.20;;
67041;SDS011;53949;47.790;18.750;2023-04-03T13:14:15;1.33;;;1.20;;
67041;SDS011;53949;47.790;18.750;2023-04-03T13:17:19;2.22;;;1.35;;
67041;SDS011;53949;47.790;18.750;2023-04-03T13:20:28;1.02;;;1.00;;
67041;SDS011;53949;47.790;18.750;2023-04-03T13:23:33;1.33;;;1.20;;
67041;SDS011;53949;47.790;18.750;2023-04-03T13:26:39;1.40;;;1.08;;
67041;SDS011;53949;47.790;18.750;2023-04-03T13:29:43;3.80;;;1.73;;
67041;SDS011;53949;47.790;18.750;2023-04-03T13:32:46;1.83;;;1.50;;
67041;SDS011;53949;47.790;18.750;2023-04-03T13:35:54;1.33;;;1.23;;
67041;SDS011;53949;47.790;18.750;2023-04-03T13:39:05;4.22;;;1.73;;
67041;SDS011;53949;47.790;18.750;2023-04-03T13:42:29;1.70;;;1.30;;
67041;SDS011;53949;47.790;18.750;2023-04-03T13:45:34;3.87;;;0.98;;
67041;SDS011;53949;47.790;18.750;2023-04-03T13:48:49;2.20;;;1.05;;
67041;SDS011;53949;47.790;18.750;2023-04-03T13:51:54;2.10;;;1.15;;
67041;SDS011;53949;47.790;18.750;2023-04-03T13:55:15;1.05;;;1.00;;
67041;SDS011;53949;47.790;18.750;2023-04-03T13:58:29;1.37;;;1.25;;
67041;SDS011;53949;47.790;18.750;2023-04-03T14:04:55;1.40;;;1.30;;
67041;SDS011;53949;47.790;18.750;2023-04-03T14:08:02;1.50;;;1.40;;
67041;SDS011;53949;47.790;18.750;2023-04-03T14:11:05;1.85;;;1.33;;
67041;SDS011;53949;47.790;18.750;2023-04-03T14:14:13;1.30;;;1.20;;
67041;SDS011;53949;47.790;18.750;2023-04-03T14:17:20;1.27;;;0.98;;
67041;SDS011;53949;47.790;18.750;2023-04-03T14:20:26;1.77;;;1.12;;
67041;SDS011;53949;47.790;18.750;2023-04-03T14:23:30;2.10;;;1.65;;
67041;SDS011;53949;47.790;18.750;2023-04-03T14:26:35;1.45;;;1.20;;
67041;SDS011;53949;47.790;18.750;2023-04-03T14:29:38;2.15;;;1.42;;
67041;SDS011;53949;47.790;18.750;2023-04-03T14:32:41;3.22;;;1.50;;
67041;SDS011;53949;47.790;18.750;2023-04-03T14:35:45;1.40;;;1.10;;
67041;SDS011;53949;47.790;18.750;2023-04-03T14:38:49;1.95;;;1.20;;
67041;SDS011;53949;47.790;18.750;2023-04-03T14:41:53;1.15;;;0.98;;
67041;SDS011;53949;47.790;18.750;2023-04-03T14:44:56;2.00;;;1.12;;
67041;SDS011;53949;47.790;18.750;2023-04-03T14:48:00;1.83;;;1.10;;
67041;SDS011;53949;47.790;18.750;2023-04-03T14:51:03;1.20;;;1.10;;
67041;SDS011;53949;47.790;18.750;2023-04-03T14:54:15;1.37;;;1.27;;
67041;SDS011;53949;47.790;18.750;2023-04-03T14:57:19;1.37;;;1.27;;
67041;SDS011;53949;47.790;18.750;2023-04-03T15:00:28;0.93;;;0.90;;
67041;SDS011;53949;47.790;18.750;2023-04-03T15:03:31;2.95;;;1.27;;
67041;SDS011;53949;47.790;18.750;2023-04-03T15:06:36;1.02;;;0.98;;
67041;SDS011;53949;47.790;18.750;2023-04-03T15:09:39;1.57;;;1.20;;
67041;SDS011;53949;47.790;18.750;2023-04-03T15:12:43;3.33;;;1.25;;
67041;SDS011;53949;47.790;18.750;2023-04-03T15:15:46;2.95;;;1.15;;
67041;SDS011;53949;47.790;18.750;2023-04-03T15:18:50;1.00;;;0.90;;
67041;SDS011;53949;47.790;18.750;2023-04-03T15:21:53;4.53;;;1.30;;
67041;SDS011;53949;47.790;18.750;2023-04-03T15:24:56;1.33;;;1.02;;
67041;SDS011;53949;47.790;18.750;2023-04-03T15:27:59;3.15;;;0.90;;
67041;SDS011;53949;47.790;18.750;2023-04-03T15:31:03;0.60;;;0.60;;
67041;SDS011;53949;47.790;18.750;2023-04-03T15:34:06;3.05;;;0.73;;
67041;SDS011;53949;47.790;18.750;2023-04-03T15:37:10;1.27;;;1.00;;
67041;SDS011;53949;47.790;18.750;2023-04-03T15:40:13;1.12;;;0.93;;
67041;SDS011;53949;47.790;18.750;2023-04-03T15:43:16;4.10;;;1.25;;
67041;SDS011;53949;47.790;18.750;2023-04-03T15:46:19;2.70;;;1.60;;
67041;SDS011;53949;47.790;18.750;2023-04-03T15:49:23;1.55;;;1.12;;
67041;SDS011;53949;47.790;18.750;2023-04-03T15:52:26;1.05;;;0.95;;
67041;SDS011;53949;47.790;18.750;2023-04-03T15:55:31;1.67;;;1.30;;
67041;SDS011;53949;47.790;18.750;2023-04-03T15:58:36;1.02;;;0.62;;
67041;SDS011;53949;47.790;18.750;2023-04-03T16:01:39;2.03;;;1.55;;
67041;SDS011;53949;47.790;18.750;2023-04-03T16:04:43;2.25;;;1.50;;
67041;SDS011;53949;47.790;18.750;2023-04-03T16:07:46;2.03;;;1.65;;
67041;SDS011;53949;47.790;18.750;2023-04-03T16:10:49;3.13;;;2.07;;
67041;SDS011;53949;47.790;18.750;2023-04-03T16:13:53;2.37;;;1.73;;
67041;SDS011;53949;47.790;18.750;2023-04-03T16:16:57;2.00;;;1.10;;
67041;SDS011;53949;47.790;18.750;2023-04-03T16:20:03;2.30;;;1.27;;
67041;SDS011;53949;47.790;18.750;2023-04-03T16:23:07;1.73;;;1.40;;
67041;SDS011;53949;47.790;18.750;2023-04-03T16:26:10;1.75;;;1.12;;
67041;SDS011;53949;47.790;18.750;2023-04-03T16:29:14;1.52;;;1.12;;
67041;SDS011;53949;47.790;18.750;2023-04-03T16:32:17;3.72;;;1.40;;
67041;SDS011;53949;47.790;18.750;2023-04-03T16:35:20;1.52;;;1.23;;
67041;SDS011;53949;47.790;18.750;2023-04-03T16:38:23;2.10;;;1.40;;
67041;SDS011;53949;47.790;18.750;2023-04-03T16:41:27;1.92;;;1.30;;
67041;SDS011;53949;47.790;18.750;2023-04-03T16:44:31;0.90;;;0.90;;
67041;SDS011;53949;47.790;18.750;2023-04-03T16:47:35;1.17;;;1.08;;
67041;SDS011;53949;47.790;18.750;2023-04-03T16:50:38;1.12;;;1.02;;
67041;SDS011;53949;47.790;18.750;2023-04-03T16:53:42;2.45;;;1.02;;
67041;SDS011;53949;47.790;18.750;2023-04-03T16:56:46;1.17;;;1.08;;
67041;SDS011;53949;47.790;18.750;2023-04-03T16:59:49;1.05;;;0.90;;
67041;SDS011;53949;47.790;18.750;2023-04-03T17:02:53;3.15;;;2.00;;
67041;SDS011;53949;47.790;18.750;2023-04-03T17:05:57;2.45;;;1.52;;
67041;SDS011;53949;47.790;18.750;2023-04-03T17:09:00;2.00;;;1.35;;
67041;SDS011;53949;47.790;18.750;2023-04-03T17:12:04;5.12;;;1.90;;
67041;SDS011;53949;47.790;18.750;2023-04-03T17:15:08;1.58;;;1.48;;
67041;SDS011;53949;47.790;18.750;2023-04-03T17:18:12;5.50;;;2.20;;
67041;SDS011;53949;47.790;18.750;2023-04-03T17:21:15;2.33;;;1.52;;
67041;SDS011;53949;47.790;18.750;2023-04-03T17:24:19;1.90;;;1.50;;
67041;SDS011;53949;47.790;18.750;2023-04-03T17:27:22;3.72;;;2.08;;
67041;SDS011;53949;47.790;18.750;2023-04-03T17:30:25;3.12;;;2.10;;
67041;SDS011;53949;47.790;18.750;2023-04-03T17:33:30;3.93;;;2.50;;
67041;SDS011;53949;47.790;18.750;2023-04-03T17:36:35;3.75;;;1.90;;
67041;SDS011;53949;47.790;18.750;2023-04-03T17:39:40;4.28;;;1.77;;
67041;SDS011;53949;47.790;18.750;2023-04-03T17:42:43;2.55;;;1.60;;
67041;SDS011;53949;47.790;18.750;2023-04-03T17:45:47;1.48;;;1.37;;
67041;SDS011;53949;47.790;18.750;2023-04-03T17:48:50;2.55;;;1.70;;
67041;SDS011;53949;47.790;18.750;2023-04-03T17:51:54;1.80;;;1.70;;
67041;SDS011;53949;47.790;18.750;2023-04-03T17:54:59;1.95;;;1.17;;
67041;SDS011;53949;47.790;18.750;2023-04-03T17:58:03;1.60;;;1.30;;
67041;SDS011;53949;47.790;18.750;2023-04-03T18:01:28;1.77;;;1.15;;
67041;SDS011;53949;47.790;18.750;2023-04-03T18:04:31;1.52;;;0.95;;
67041;SDS011;53949;47.790;18.750;2023-04-03T18:07:36;2.45;;;1.58;;
67041;SDS011;53949;47.790;18.750;2023-04-03T18:10:43;1.67;;;1.30;;
67041;SDS011;53949;47.790;18.750;2023-04-03T18:13:47;3.47;;;1.50;;
67041;SDS011;53949;47.790;18.750;2023-04-03T18:16:52;2.00;;;1.70;;
67041;SDS011;53949;47.790;18.750;2023-04-03T18:20:03;3.25;;;1.50;;
67041;SDS011;53949;47.790;18.750;2023-04-03T18:26:14;5.17;;;1.90;;
67041;SDS011;53949;47.790;18.750;2023-04-03T18:29:22;6.28;;;2.60;;
67041;SDS011;53949;47.790;18.750;2023-04-03T18:32:26;4.22;;;2.30;;
67041;SDS011;53949;47.790;18.750;2023-04-03T18:35:31;4.32;;;2.00;;
67041;SDS011;53949;47.790;18.750;2023-04-03T18:38:36;8.50;;;2.42;;
67041;SDS011;53949;47.790;18.750;2023-04-03T18:41:40;5.10;;;2.20;;
67041;SDS011;53949;47.790;18.750;2023-04-03T18:44:46;7.95;;;2.60;;
67041;SDS011;53949;47.790;18.750;2023-04-03T18:47:52;5.93;;;2.17;;
67041;SDS011;53949;47.790;18.750;2023-04-03T18:50:57;3.70;;;1.95;;
67041;SDS011;53949;47.790;18.750;2023-04-03T18:54:02;6.37;;;2.42;;
67041;SDS011;53949;47.790;18.750;2023-04-03T18:57:07;3.60;;;1.77;;
67041;SDS011;53949;47.790;18.750;2023-04-03T19:00:13;4.65;;;2.12;;
67041;SDS011;53949;47.790;18.750;2023-04-03T19:03:19;2.90;;;1.87;;
67041;SDS011;53949;47.790;18.750;2023-04-03T19:06:25;2.70;;;2.00;;
67041;SDS011;53949;47.790;18.750;2023-04-03T19:09:32;1.52;;;1.37;;
67041;SDS011;53949;47.790;18.750;2023-04-03T19:12:40;3.40;;;1.50;;
67041;SDS011;53949;47.790;18.750;2023-04-03T19:15:49;1.84;;;1.74;;
67041;SDS011;53949;47.790;18.750;2023-04-03T19:18:55;2.37;;;1.73;;
67041;SDS011;53949;47.790;18.750;2023-04-03T19:22:00;3.15;;;1.52;;
67041;SDS011;53949;47.790;18.750;2023-04-03T19:25:07;1.73;;;1.40;;
67041;SDS011;53949;47.790;18.750;2023-04-03T19:28:14;1.70;;;1.45;;
67041;SDS011;53949;47.790;18.750;2023-04-03T19:31:20;2.10;;;1.60;;
67041;SDS011;53949;47.790;18.750;2023-04-03T19:34:25;4.50;;;2.00;;
67041;SDS011;53949;47.790;18.750;2023-04-03T19:37:30;2.10;;;1.50;;